createdAt,value
2022-09-14T00:01:26.136Z,8.47
2022-09-14T00:04:17.281Z,8.48
2022-09-14T00:06:44.187Z,8.43
2022-09-14T00:09:19.850Z,8.44
2022-09-14T00:11:46.806Z,8.45
2022-09-14T00:14:14.255Z,8.49
2022-09-14T00:16:42.812Z,8.46
2022-09-14T00:19:19.410Z,8.37
2022-09-14T00:21:49.823Z,8.42
2022-09-14T00:24:16.545Z,8.38
2022-09-14T00:26:43.353Z,8.38
2022-09-14T00:29:10.988Z,8.33
2022-09-14T00:31:39.609Z,8.32
2022-09-14T00:34:08.522Z,8.28
2022-09-14T00:36:44.918Z,8.23
2022-09-14T00:39:12.343Z,8.25
2022-09-14T00:41:41.927Z,8.28
2022-09-14T00:44:11.394Z,8.33
2022-09-14T00:46:51.431Z,8.39
2022-09-14T00:49:21.974Z,8.23
2022-09-14T00:51:54.934Z,8.40
2022-09-14T00:54:21.801Z,8.36
2022-09-14T00:56:49.742Z,8.29
2022-09-14T00:59:23.498Z,8.19
2022-09-14T01:01:50.991Z,8.24
2022-09-14T01:04:17.802Z,8.22
2022-09-14T01:07:06.612Z,8.26
2022-09-14T01:09:58.243Z,8.21
2022-09-14T01:13:03.125Z,8.12
2022-09-14T01:15:38.623Z,8.07
2022-09-14T01:18:14.361Z,8.06
2022-09-14T01:21:10.754Z,8.04
2022-09-14T01:24:06.649Z,7.91
2022-09-14T01:27:01.162Z,7.97
2022-09-14T01:29:30.997Z,7.94
2022-09-14T01:32:19.072Z,7.91
2022-09-14T01:35:15.684Z,7.85
2022-09-14T01:37:50.850Z,7.83
2022-09-14T01:40:30.606Z,7.85
2022-09-14T01:43:09.141Z,7.80
2022-09-14T01:45:38.475Z,7.65
2022-09-14T01:48:08.922Z,7.73
2022-09-14T01:50:41.031Z,7.73
2022-09-14T01:53:34.877Z,7.72
2022-09-14T01:56:15.325Z,7.81
2022-09-14T01:59:11.470Z,7.82
2022-09-14T02:01:46.384Z,7.76
2022-09-14T02:04:26.870Z,7.73
2022-09-14T02:06:53.838Z,7.72
2022-09-14T02:09:26.750Z,7.68
2022-09-14T02:11:55.805Z,7.64
2022-09-14T02:14:23.183Z,7.65
2022-09-14T02:16:49.994Z,7.51
2022-09-14T02:19:20.530Z,7.56
2022-09-14T02:21:50.547Z,7.56
2022-09-14T02:24:18.122Z,7.57
2022-09-14T02:26:45.862Z,7.57
2022-09-14T02:29:12.629Z,7.60
2022-09-14T02:31:53.940Z,7.64
2022-09-14T02:34:57.939Z,7.60
2022-09-14T02:37:59.224Z,7.51
2022-09-14T02:40:33.149Z,7.41
2022-09-14T02:43:18.425Z,7.47
2022-09-14T02:46:03.696Z,7.49
2022-09-14T02:48:39.212Z,7.50
2022-09-14T02:51:14.628Z,7.42
2022-09-14T02:54:03.152Z,7.36
2022-09-14T02:56:30.233Z,7.31
2022-09-14T02:58:57.170Z,7.38
2022-09-14T03:01:24.707Z,7.36
2022-09-14T03:03:51.687Z,7.36
2022-09-14T03:06:18.586Z,7.28
2022-09-14T03:08:46.560Z,7.26
2022-09-14T03:11:13.412Z,7.20
2022-09-14T03:13:40.473Z,7.12
2022-09-14T03:16:10.471Z,7.18
2022-09-14T03:18:37.943Z,7.24
2022-09-14T03:21:06.493Z,7.26
2022-09-14T03:23:38.519Z,7.26
2022-09-14T03:26:10.682Z,7.28
2022-09-14T03:28:37.802Z,7.29
2022-09-14T03:31:06.933Z,7.30
2022-09-14T03:33:34.033Z,7.28
2022-09-14T03:36:01.302Z,7.30
2022-09-14T03:38:30.172Z,7.27
2022-09-14T03:40:59.995Z,7.28
2022-09-14T03:43:27.083Z,7.29
2022-09-14T03:45:53.874Z,7.34
2022-09-14T03:48:20.652Z,7.40
2022-09-14T03:50:47.340Z,7.42
2022-09-14T03:53:14.090Z,7.46
2022-09-14T03:55:41.792Z,7.54
2022-09-14T03:58:08.633Z,7.56
2022-09-14T04:00:36.284Z,7.58
2022-09-14T04:03:03.774Z,7.55
2022-09-14T04:05:30.667Z,7.46
2022-09-14T04:07:57.490Z,7.40
2022-09-14T04:10:24.180Z,7.30
2022-09-14T04:12:50.988Z,7.37
2022-09-14T04:15:18.411Z,7.28
2022-09-14T04:17:45.298Z,7.29
2022-09-14T04:20:12.297Z,7.27
2022-09-14T04:22:39.189Z,7.22
2022-09-14T04:25:06.358Z,7.28
2022-09-14T04:27:33.458Z,7.20
2022-09-14T04:30:00.195Z,7.24
2022-09-14T04:32:32.094Z,7.26
2022-09-14T04:35:00.917Z,7.24
2022-09-14T04:37:31.235Z,7.29
2022-09-14T04:39:58.039Z,7.38
2022-09-14T04:42:24.864Z,7.49
2022-09-14T04:44:51.594Z,7.55
2022-09-14T04:47:18.308Z,7.63
2022-09-14T04:49:45.010Z,7.77
2022-09-14T04:52:12.022Z,7.88
2022-09-14T04:54:38.779Z,8.03
2022-09-14T04:57:05.621Z,8.13
2022-09-14T04:59:32.450Z,8.26
2022-09-14T05:01:59.287Z,8.23
2022-09-14T05:04:26.096Z,8.57
2022-09-14T05:06:52.842Z,8.72
2022-09-14T05:09:20.400Z,8.94
2022-09-14T05:11:49.600Z,9.10
2022-09-14T05:14:16.354Z,9.24
2022-09-14T05:16:44.573Z,9.41
2022-09-14T05:19:14.600Z,9.62
2022-09-14T05:21:41.640Z,9.79
2022-09-14T05:24:16.281Z,9.95
2022-09-14T05:26:44.093Z,10.09
2022-09-14T05:29:16.536Z,10.17
2022-09-14T05:31:43.771Z,10.35
2022-09-14T05:34:11.333Z,10.42
2022-09-14T05:36:39.111Z,10.47
2022-09-14T05:39:07.079Z,10.33
2022-09-14T05:41:33.852Z,10.58
2022-09-14T05:44:00.646Z,10.66
2022-09-14T05:46:27.750Z,10.77
2022-09-14T05:48:54.566Z,10.84
2022-09-14T05:51:23.806Z,10.89
2022-09-14T05:53:52.586Z,10.98
2022-09-14T05:56:21.176Z,10.98
2022-09-14T05:58:48.878Z,11.33
2022-09-14T06:01:23.862Z,11.40
2022-09-14T06:03:54.319Z,11.61
2022-09-14T06:06:21.871Z,11.72
2022-09-14T06:08:54.143Z,11.90
2022-09-14T06:11:26.886Z,12.04
2022-09-14T06:13:55.140Z,12.21
2022-09-14T06:16:23.918Z,12.34
2022-09-14T06:18:51.160Z,12.52
2022-09-14T06:21:19.851Z,12.68
2022-09-14T06:23:48.016Z,12.74
2022-09-14T06:26:16.115Z,12.92
2022-09-14T06:28:43.381Z,13.11
2022-09-14T06:31:13.161Z,13.19
2022-09-14T06:33:44.562Z,13.33
2022-09-14T06:36:14.990Z,13.43
2022-09-14T06:38:42.714Z,13.57
2022-09-14T06:41:12.244Z,13.73
2022-09-14T06:43:41.301Z,13.92
2022-09-14T06:46:13.459Z,14.06
2022-09-14T06:48:50.435Z,14.10
2022-09-14T06:51:19.158Z,14.22
2022-09-14T06:53:47.302Z,14.30
2022-09-14T06:56:15.378Z,14.47
2022-09-14T06:58:42.635Z,14.64
2022-09-14T07:01:15.171Z,14.86
2022-09-14T07:03:47.104Z,14.68
2022-09-14T07:06:20.963Z,14.94
2022-09-14T07:08:48.867Z,15.07
2022-09-14T07:11:17.652Z,15.18
2022-09-14T07:13:45.236Z,15.39
2022-09-14T07:16:13.033Z,15.44
2022-09-14T07:18:40.806Z,15.62
2022-09-14T07:21:10.893Z,15.82
2022-09-14T07:23:40.255Z,15.95
2022-09-14T07:26:08.770Z,16.18
2022-09-14T07:28:36.910Z,16.45
2022-09-14T07:31:05.165Z,16.39
2022-09-14T07:33:32.689Z,16.79
2022-09-14T07:36:10.568Z,17.05
2022-09-14T07:38:53.585Z,17.24
2022-09-14T07:41:21.905Z,17.01
2022-09-14T07:43:54.518Z,16.96
2022-09-14T07:46:21.994Z,17.04
2022-09-14T07:48:54.445Z,17.05
2022-09-14T07:51:21.483Z,17.13
2022-09-14T07:53:48.375Z,17.35
2022-09-14T07:56:16.916Z,17.54
2022-09-14T07:58:44.923Z,17.60
2022-09-14T08:01:20.057Z,17.84
2022-09-14T08:03:48.322Z,17.99
2022-09-14T08:06:20.588Z,18.13
2022-09-14T08:08:50.432Z,18.32
2022-09-14T08:11:30.107Z,18.38
2022-09-14T08:14:04.737Z,18.47
2022-09-14T08:16:34.552Z,18.66
2022-09-14T08:19:05.058Z,18.72
2022-09-14T08:21:32.846Z,18.87
2022-09-14T08:24:02.432Z,19.08
2022-09-14T08:26:30.140Z,19.25
2022-09-14T08:28:57.745Z,19.31
2022-09-14T08:31:26.561Z,19.41
2022-09-14T08:34:01.501Z,19.59
2022-09-14T08:36:40.380Z,19.83
2022-09-14T08:39:10.328Z,19.97
2022-09-14T08:41:46.183Z,20.10
2022-09-14T08:44:24.676Z,20.14
2022-09-14T08:47:07.732Z,20.05
2022-09-14T08:50:02.601Z,20.17
2022-09-14T08:52:47.315Z,20.24
2022-09-14T08:55:25.542Z,20.41
2022-09-14T08:57:57.888Z,20.60
2022-09-14T09:00:32.342Z,20.52
2022-09-14T09:03:21.084Z,20.87
2022-09-14T09:06:15.124Z,20.76
2022-09-14T09:09:02.843Z,20.87
2022-09-14T09:11:37.425Z,20.96
2022-09-14T09:14:18.693Z,21.00
2022-09-14T09:16:49.768Z,21.25
2022-09-14T09:19:31.669Z,21.27
2022-09-14T09:22:00.255Z,21.33
2022-09-14T09:24:37.805Z,21.58
2022-09-14T09:27:16.001Z,21.69
2022-09-14T09:29:43.345Z,21.58
2022-09-14T09:32:18.033Z,21.90
2022-09-14T09:35:08.044Z,21.93
2022-09-14T09:38:20.073Z,22.32
2022-09-14T09:40:56.880Z,22.57
2022-09-14T09:43:38.880Z,22.81
2022-09-14T09:46:12.557Z,22.95
2022-09-14T09:48:41.856Z,23.03
2022-09-14T09:51:15.232Z,23.15
2022-09-14T09:53:54.145Z,23.19
2022-09-14T09:56:26.699Z,23.37
2022-09-14T09:58:53.786Z,23.63
2022-09-14T10:01:35.895Z,23.63
2022-09-14T10:04:04.882Z,23.49
2022-09-14T10:06:32.664Z,23.52
2022-09-14T10:08:59.951Z,23.52
2022-09-14T10:11:45.271Z,23.60
2022-09-14T10:14:29.185Z,23.84
2022-09-14T10:17:06.095Z,23.93
2022-09-14T10:19:33.667Z,24.07
2022-09-14T10:22:17.513Z,24.13
2022-09-14T10:24:57.888Z,24.37
2022-09-14T10:27:49.140Z,24.69
2022-09-14T10:30:19.128Z,25.02
2022-09-14T10:33:02.462Z,24.98
2022-09-14T10:35:56.021Z,25.14
2022-09-14T10:38:39.096Z,25.38
2022-09-14T10:41:26.045Z,25.43
2022-09-14T10:44:23.940Z,25.49
2022-09-14T10:47:12.122Z,25.46
2022-09-14T10:50:11.536Z,25.45
2022-09-14T10:52:44.051Z,25.56
2022-09-14T10:55:34.380Z,25.73
2022-09-14T10:58:21.194Z,25.76
2022-09-14T11:01:27.002Z,25.72
2022-09-14T11:04:19.084Z,25.84
2022-09-14T11:07:12.691Z,26.28
2022-09-14T11:10:13.033Z,26.32
2022-09-14T11:13:05.949Z,26.60
2022-09-14T11:15:38.357Z,26.39
2022-09-14T11:18:21.352Z,26.74
2022-09-14T11:21:20.413Z,26.98
2022-09-14T11:23:57.214Z,27.29
2022-09-14T11:26:31.679Z,27.12
2022-09-14T11:29:16.975Z,27.22
2022-09-14T11:32:16.866Z,27.69
2022-09-14T11:34:48.182Z,27.43
2022-09-14T11:37:19.835Z,27.58
2022-09-14T11:40:01.864Z,27.67
2022-09-14T11:42:35.754Z,27.54
2022-09-14T11:45:07.991Z,27.88
2022-09-14T11:47:41.236Z,27.80
2022-09-14T11:50:17.654Z,27.98
2022-09-14T11:52:44.563Z,28.19
2022-09-14T11:55:17.426Z,28.51
2022-09-14T11:57:46.553Z,28.52
2022-09-14T12:00:23.837Z,28.49
2022-09-14T12:03:18.739Z,28.31
2022-09-14T12:05:47.013Z,28.34
2022-09-14T12:08:38.497Z,28.85
2022-09-14T12:11:08.054Z,28.63
2022-09-14T12:13:36.624Z,28.89
2022-09-14T12:16:14.806Z,29.49
2022-09-14T12:18:45.432Z,29.51
2022-09-14T12:21:17.910Z,29.20
2022-09-14T12:23:51.929Z,29.67
2022-09-14T12:26:18.731Z,30.02
2022-09-14T12:28:48.705Z,29.89
2022-09-14T12:31:37.439Z,30.10
2022-09-14T12:34:30.433Z,30.16
2022-09-14T12:37:00.275Z,30.06
2022-09-14T12:39:35.758Z,30.25
2022-09-14T12:42:27.343Z,30.46
2022-09-14T12:44:54.620Z,30.87
2022-09-14T12:47:26.997Z,31.11
2022-09-14T12:49:58.719Z,30.60
2022-09-14T12:52:48.733Z,30.43
2022-09-14T12:55:33.840Z,30.71
2022-09-14T12:58:33.070Z,31.22
2022-09-14T13:01:24.754Z,31.33
2022-09-14T13:03:57.088Z,30.94
2022-09-14T13:06:30.677Z,31.02
2022-09-14T13:08:58.828Z,31.16
2022-09-14T13:11:37.262Z,31.35
2022-09-14T13:14:04.541Z,31.47
2022-09-14T13:16:44.368Z,31.13
2022-09-14T13:19:20.099Z,31.37
2022-09-14T13:21:49.801Z,31.74
2022-09-14T13:24:24.720Z,32.35
2022-09-14T13:26:52.934Z,32.43
2022-09-14T13:29:19.711Z,32.88
2022-09-14T13:31:47.030Z,33.07
2022-09-14T13:34:35.783Z,32.74
2022-09-14T13:37:04.270Z,32.54
2022-09-14T13:39:35.027Z,32.01
2022-09-14T13:42:02.858Z,32.31
2022-09-14T13:44:34.964Z,32.51
2022-09-14T13:47:05.670Z,32.84
2022-09-14T13:49:34.707Z,33.15
2022-09-14T13:52:20.149Z,33.08
2022-09-14T13:54:47.362Z,32.58
2022-09-14T13:57:20.326Z,32.98
2022-09-14T14:00:16.948Z,33.47
2022-09-14T14:02:50.301Z,33.25
2022-09-14T14:05:21.514Z,33.26
2022-09-14T14:07:48.365Z,33.48
2022-09-14T14:10:25.221Z,33.66
2022-09-14T14:12:52.369Z,33.30
2022-09-14T14:15:19.045Z,33.08
2022-09-14T14:17:45.868Z,33.31
2022-09-14T14:20:32.965Z,33.42
2022-09-14T14:23:08.637Z,33.49
2022-09-14T14:25:45.717Z,33.69
2022-09-14T14:28:27.431Z,33.81
2022-09-14T14:30:58.307Z,34.03
2022-09-14T14:33:25.784Z,33.89
2022-09-14T14:35:54.649Z,33.62
2022-09-14T14:38:23.470Z,34.05
2022-09-14T14:40:52.417Z,33.37
2022-09-14T14:43:21.592Z,33.84
2022-09-14T14:45:50.097Z,34.15
2022-09-14T14:48:18.503Z,34.40
2022-09-14T14:50:46.682Z,34.06
2022-09-14T14:53:13.567Z,34.23
2022-09-14T14:55:41.025Z,34.19
2022-09-14T14:58:14.051Z,34.34
2022-09-14T15:00:41.168Z,34.47
2022-09-14T15:03:07.914Z,34.60
2022-09-14T15:05:34.849Z,34.77
2022-09-14T15:08:01.692Z,34.92
2022-09-14T15:10:29.392Z,35.41
2022-09-14T15:12:56.235Z,35.70
2022-09-14T15:15:25.469Z,35.80
2022-09-14T15:17:53.437Z,35.97
2022-09-14T15:20:20.964Z,35.52
2022-09-14T15:22:48.976Z,35.14
2022-09-14T15:25:18.195Z,35.01
2022-09-14T15:27:45.522Z,34.76
2022-09-14T15:30:13.696Z,34.37
2022-09-14T15:32:41.089Z,33.81
2022-09-14T15:35:10.879Z,33.28
2022-09-14T15:37:37.713Z,33.38
2022-09-14T15:40:05.128Z,33.67
2022-09-14T15:42:31.988Z,33.97
2022-09-14T15:44:58.759Z,33.90
2022-09-14T15:47:25.564Z,33.81
2022-09-14T15:49:55.091Z,33.76
2022-09-14T15:52:21.886Z,33.71
2022-09-14T15:54:49.685Z,33.52
2022-09-14T15:57:16.561Z,33.34
2022-09-14T15:59:43.274Z,33.33
2022-09-14T16:02:12.395Z,33.36
2022-09-14T16:04:39.557Z,33.29
2022-09-14T16:07:11.036Z,33.07
2022-09-14T16:09:41.722Z,32.49
2022-09-14T16:12:13.584Z,31.91
2022-09-14T16:14:40.570Z,31.51
2022-09-14T16:17:09.302Z,31.21
2022-09-14T16:19:36.031Z,30.85
2022-09-14T16:22:03.656Z,30.58
2022-09-14T16:24:31.422Z,30.10
2022-09-14T16:26:58.594Z,29.85
2022-09-14T16:29:26.521Z,29.21
2022-09-14T16:31:54.300Z,28.92
2022-09-14T16:34:27.304Z,28.45
2022-09-14T16:36:55.541Z,28.10
2022-09-14T16:39:25.130Z,27.69
2022-09-14T16:41:54.235Z,27.28
2022-09-14T16:44:26.006Z,26.92
2022-09-14T16:46:54.502Z,26.47
2022-09-14T16:49:27.255Z,26.09
2022-09-14T16:51:55.669Z,26.01
2022-09-14T16:54:24.356Z,25.69
2022-09-14T16:56:51.462Z,25.42
2022-09-14T16:59:20.551Z,25.14
2022-09-14T17:01:52.043Z,24.98
2022-09-14T17:04:22.194Z,24.90
2022-09-14T17:06:50.622Z,24.71
2022-09-14T17:09:28.454Z,23.90
2022-09-14T17:11:56.697Z,23.39
2022-09-14T17:14:29.495Z,23.36
2022-09-14T17:16:56.889Z,23.31
2022-09-14T17:19:23.711Z,23.34
2022-09-14T17:21:51.054Z,23.31
2022-09-14T17:24:19.061Z,23.34
2022-09-14T17:26:46.806Z,23.32
2022-09-14T17:29:14.096Z,23.28
2022-09-14T17:31:42.698Z,23.21
2022-09-14T17:34:12.243Z,23.16
2022-09-14T17:36:39.049Z,23.09
2022-09-14T17:39:11.657Z,23.07
2022-09-14T17:41:40.235Z,23.04
2022-09-14T17:44:08.230Z,22.84
2022-09-14T17:46:37.370Z,22.66
2022-09-14T17:49:08.617Z,22.53
2022-09-14T17:51:37.262Z,22.50
2022-09-14T17:54:04.351Z,22.38
2022-09-14T17:56:31.503Z,22.19
2022-09-14T17:59:04.717Z,22.01
2022-09-14T18:01:32.683Z,21.87
2022-09-14T18:04:02.345Z,21.73
2022-09-14T18:06:38.436Z,21.50
2022-09-14T18:09:11.648Z,21.45
2022-09-14T18:11:38.691Z,21.39
2022-09-14T18:14:06.096Z,21.28
2022-09-14T18:16:33.983Z,21.15
2022-09-14T18:19:01.011Z,21.08
2022-09-14T18:21:27.760Z,21.07
2022-09-14T18:23:55.172Z,21.03
2022-09-14T18:26:23.560Z,20.95
2022-09-14T18:28:53.570Z,20.95
2022-09-14T18:31:20.524Z,20.93
2022-09-14T18:33:52.513Z,20.79
2022-09-14T18:36:20.181Z,20.76
2022-09-14T18:38:48.636Z,20.66
2022-09-14T18:41:17.731Z,20.48
2022-09-14T18:43:46.460Z,20.33
2022-09-14T18:46:14.848Z,20.33
2022-09-14T18:48:44.071Z,20.32
2022-09-14T18:51:12.279Z,20.29
2022-09-14T18:53:39.034Z,20.25
2022-09-14T18:56:17.233Z,20.17
2022-09-14T18:58:46.534Z,20.05
2022-09-14T19:01:14.911Z,19.88
2022-09-14T19:03:42.925Z,19.72
2022-09-14T19:06:14.952Z,19.63
2022-09-14T19:08:42.737Z,19.53
2022-09-14T19:11:18.807Z,19.45
2022-09-14T19:13:47.016Z,19.31
2022-09-14T19:16:20.083Z,19.19
2022-09-14T19:18:48.571Z,19.06
2022-09-14T19:21:18.900Z,19.07
2022-09-14T19:23:47.533Z,19.00
2022-09-14T19:26:18.273Z,18.89
2022-09-14T19:28:45.689Z,18.81
2022-09-14T19:31:14.958Z,18.75
2022-09-14T19:33:45.446Z,18.70
2022-09-14T19:36:15.922Z,18.54
2022-09-14T19:38:43.053Z,18.52
2022-09-14T19:41:09.853Z,18.43
2022-09-14T19:43:36.693Z,18.43
2022-09-14T19:46:11.991Z,18.39
2022-09-14T19:48:39.806Z,18.34
2022-09-14T19:51:09.298Z,18.23
2022-09-14T19:53:37.114Z,18.28
2022-09-14T19:56:09.043Z,18.23
2022-09-14T19:58:37.227Z,18.27
2022-09-14T20:01:04.948Z,18.23
2022-09-14T20:03:32.613Z,18.28
2022-09-14T20:06:08.269Z,18.29
2022-09-14T20:08:35.936Z,18.26
2022-09-14T20:11:13.298Z,18.28
2022-09-14T20:13:41.633Z,18.28
2022-09-14T20:16:19.173Z,18.28
2022-09-14T20:18:47.644Z,18.27
2022-09-14T20:21:20.217Z,18.28
2022-09-14T20:24:11.423Z,18.33
2022-09-14T20:26:33.957Z,18.30
2022-09-14T20:29:01.342Z,18.24
2022-09-14T20:31:29.693Z,18.19
2022-09-14T20:33:57.446Z,18.15
2022-09-14T20:36:25.352Z,18.13
2022-09-14T20:38:54.521Z,18.12
2022-09-14T20:41:23.422Z,18.02
2022-09-14T20:43:50.909Z,17.80
2022-09-14T20:46:23.394Z,17.81
2022-09-14T20:48:50.772Z,17.75
2022-09-14T20:51:20.026Z,17.62
2022-09-14T20:54:07.059Z,17.58
2022-09-14T20:56:35.783Z,17.43
2022-09-14T20:59:13.439Z,17.37
2022-09-14T21:01:42.411Z,17.22
2022-09-14T21:04:12.070Z,17.04
2022-09-14T21:06:41.433Z,16.94
2022-09-14T21:09:09.501Z,16.86
2022-09-14T21:11:36.751Z,16.82
2022-09-14T21:14:04.345Z,16.67
2022-09-14T21:16:42.991Z,16.57
2022-09-14T21:19:12.771Z,16.47
2022-09-14T21:21:39.975Z,16.31
2022-09-14T21:24:09.682Z,16.12
2022-09-14T21:26:41.826Z,15.97
2022-09-14T21:29:14.243Z,15.96
2022-09-14T21:31:41.698Z,15.97
2022-09-14T21:34:11.085Z,15.86
2022-09-14T21:36:42.171Z,15.81
2022-09-14T21:39:12.606Z,15.82
2022-09-14T21:41:40.757Z,15.77
2022-09-14T21:44:08.531Z,15.75
2022-09-14T21:46:35.730Z,15.75
2022-09-14T21:49:02.502Z,15.72
2022-09-14T21:51:35.022Z,15.71
2022-09-14T21:54:13.578Z,15.69
2022-09-14T21:56:43.185Z,15.65
2022-09-14T21:59:12.935Z,15.66
2022-09-14T22:01:39.998Z,15.65
2022-09-14T22:04:08.060Z,15.57
2022-09-14T22:06:35.696Z,15.62
2022-09-14T22:09:03.007Z,15.64
2022-09-14T22:11:34.962Z,15.66
2022-09-14T22:14:07.641Z,15.68
2022-09-14T22:16:36.858Z,15.72
2022-09-14T22:19:12.399Z,15.71
2022-09-14T22:21:39.727Z,15.71
2022-09-14T22:24:14.054Z,15.64
2022-09-14T22:26:42.383Z,15.65
2022-09-14T22:29:10.530Z,15.70
2022-09-14T22:31:40.003Z,15.71
2022-09-14T22:34:07.627Z,15.58
2022-09-14T22:36:34.828Z,15.62
2022-09-14T22:39:01.894Z,15.63
2022-09-14T22:41:29.398Z,15.57
2022-09-14T22:43:56.756Z,15.61
2022-09-14T22:46:24.515Z,15.55
2022-09-14T22:48:52.419Z,15.47
2022-09-14T22:51:23.168Z,15.45
2022-09-14T22:53:50.564Z,15.44
2022-09-14T22:56:29.769Z,15.40
2022-09-14T22:58:57.425Z,15.31
2022-09-14T23:01:30.397Z,15.31
2022-09-14T23:04:00.139Z,15.18
2022-09-14T23:06:32.672Z,15.32
2022-09-14T23:09:02.898Z,15.32
2022-09-14T23:11:30.325Z,15.22
2022-09-14T23:13:58.991Z,15.32
2022-09-14T23:16:27.966Z,15.15
2022-09-14T23:19:02.557Z,15.21
2022-09-14T23:21:31.110Z,15.12
2022-09-14T23:24:06.642Z,15.05
2022-09-14T23:26:34.420Z,14.99
2022-09-14T23:29:06.994Z,14.98
2022-09-14T23:31:34.245Z,14.86
2022-09-14T23:34:04.483Z,14.90
2022-09-14T23:36:31.693Z,14.82
2022-09-14T23:38:58.403Z,14.70
2022-09-14T23:41:26.568Z,14.58
2022-09-14T23:43:54.094Z,14.45
2022-09-14T23:46:21.959Z,14.31
2022-09-14T23:48:49.065Z,14.10
2022-09-14T23:51:16.074Z,14.17
2022-09-14T23:53:43.263Z,14.14
2022-09-14T23:56:10.908Z,14.12
2022-09-14T23:58:38.303Z,14.12
